createdAt,value
2022-12-23T00:00:27.166Z,6.04
2022-12-23T00:02:53.862Z,5.99
2022-12-23T00:05:20.467Z,6.03
2022-12-23T00:07:46.961Z,6.02
2022-12-23T00:10:13.446Z,6.00
2022-12-23T00:12:58.474Z,6.06
2022-12-23T00:15:24.939Z,6.11
2022-12-23T00:17:51.440Z,6.05
2022-12-23T00:20:18.049Z,6.01
2022-12-23T00:23:03.149Z,6.06
2022-12-23T00:25:41.599Z,6.06
2022-12-23T00:28:15.596Z,6.10
2022-12-23T00:30:52.517Z,6.18
2022-12-23T00:33:24.561Z,6.18
2022-12-23T00:35:51.657Z,6.19
2022-12-23T00:38:41.700Z,6.21
2022-12-23T00:41:37.212Z,6.19
2022-12-23T00:44:05.143Z,6.20
2022-12-23T00:46:32.084Z,6.18
2022-12-23T00:49:17.287Z,6.25
2022-12-23T00:51:43.679Z,6.07
2022-12-23T00:54:10.186Z,6.06
2022-12-23T00:56:36.708Z,6.10
2022-12-23T00:59:03.738Z,6.11
2022-12-23T01:01:49.043Z,6.08
2022-12-23T01:04:35.254Z,6.10
2022-12-23T01:07:02.250Z,6.15
2022-12-23T01:09:29.405Z,6.15
2022-12-23T01:11:55.811Z,6.16
2022-12-23T01:14:22.297Z,6.16
2022-12-23T01:16:49.058Z,6.15
2022-12-23T01:19:15.883Z,6.19
2022-12-23T01:21:42.322Z,6.10
2022-12-23T01:24:08.885Z,6.12
2022-12-23T01:26:35.676Z,6.10
2022-12-23T01:29:02.470Z,6.05
2022-12-23T01:31:29.313Z,6.10
2022-12-23T01:33:56.086Z,6.04
2022-12-23T01:36:22.989Z,6.06
2022-12-23T01:38:49.503Z,6.13
2022-12-23T01:41:43.356Z,6.14
2022-12-23T01:44:47.276Z,6.15
2022-12-23T01:47:20.010Z,6.13
2022-12-23T01:49:48.009Z,6.12
2022-12-23T01:52:14.889Z,6.07
2022-12-23T01:54:43.043Z,6.08
2022-12-23T01:57:09.581Z,6.10
2022-12-23T01:59:55.008Z,6.15
2022-12-23T02:02:40.584Z,6.07
2022-12-23T02:05:08.202Z,6.05
2022-12-23T02:07:54.556Z,5.99
2022-12-23T02:10:26.254Z,5.90
2022-12-23T02:13:04.400Z,5.99
2022-12-23T02:16:02.104Z,6.06
2022-12-23T02:18:50.067Z,6.04
2022-12-23T02:21:41.920Z,6.00
2022-12-23T02:24:26.664Z,6.07
2022-12-23T02:27:11.010Z,6.10
2022-12-23T02:30:03.131Z,6.11
2022-12-23T02:32:52.067Z,6.03
2022-12-23T02:35:30.754Z,6.00
2022-12-23T02:38:12.600Z,6.05
2022-12-23T02:41:10.411Z,6.03
2022-12-23T02:44:24.734Z,6.07
2022-12-23T02:47:04.006Z,5.97
2022-12-23T02:49:35.116Z,5.96
2022-12-23T02:52:07.519Z,5.94
2022-12-23T02:54:38.947Z,5.91
2022-12-23T02:57:09.652Z,5.97
2022-12-23T02:59:41.631Z,5.99
2022-12-23T03:02:08.233Z,6.01
2022-12-23T03:04:34.796Z,6.02
2022-12-23T03:07:07.375Z,6.05
2022-12-23T03:09:43.183Z,6.01
2022-12-23T03:12:35.551Z,6.04
2022-12-23T03:15:29.339Z,6.03
2022-12-23T03:18:26.235Z,6.01
2022-12-23T03:21:19.498Z,6.05
2022-12-23T03:24:02.975Z,6.10
2022-12-23T03:26:44.250Z,6.06
2022-12-23T03:29:36.706Z,6.09
2022-12-23T03:32:05.339Z,6.00
2022-12-23T03:34:37.614Z,5.99
2022-12-23T03:37:08.286Z,5.96
2022-12-23T03:39:40.934Z,5.93
2022-12-23T03:42:19.245Z,5.95
2022-12-23T03:45:19.259Z,5.99
2022-12-23T03:47:47.219Z,6.00
2022-12-23T03:50:17.463Z,6.07
2022-12-23T03:52:51.577Z,6.15
2022-12-23T03:55:23.302Z,6.20
2022-12-23T03:58:03.128Z,6.16
2022-12-23T04:00:35.957Z,6.16
2022-12-23T04:03:08.359Z,6.07
2022-12-23T04:05:39.113Z,6.00
2022-12-23T04:08:19.928Z,5.95
2022-12-23T04:10:46.978Z,6.00
2022-12-23T04:13:13.401Z,6.07
2022-12-23T04:15:43.813Z,6.15
2022-12-23T04:18:11.321Z,6.16
2022-12-23T04:20:37.887Z,6.16
2022-12-23T04:23:04.358Z,6.16
2022-12-23T04:25:30.875Z,6.16
2022-12-23T04:27:57.347Z,6.17
2022-12-23T04:30:26.752Z,6.15
2022-12-23T04:32:57.910Z,6.16
2022-12-23T04:35:24.398Z,6.16
2022-12-23T04:37:50.820Z,6.15
2022-12-23T04:40:17.279Z,6.12
2022-12-23T04:42:43.712Z,6.10
2022-12-23T04:45:10.417Z,6.15
2022-12-23T04:47:36.925Z,6.18
2022-12-23T04:50:04.121Z,6.17
2022-12-23T04:52:30.547Z,6.14
2022-12-23T04:54:56.962Z,6.13
2022-12-23T04:57:23.399Z,6.12
2022-12-23T04:59:49.825Z,6.13
2022-12-23T05:02:16.421Z,6.14
2022-12-23T05:04:42.918Z,6.12
2022-12-23T05:07:09.328Z,6.12
2022-12-23T05:09:35.767Z,6.10
2022-12-23T05:12:02.163Z,6.14
2022-12-23T05:14:28.572Z,6.19
2022-12-23T05:16:55.083Z,6.24
2022-12-23T05:19:21.570Z,6.24
2022-12-23T05:21:47.991Z,6.27
2022-12-23T05:24:14.422Z,6.22
2022-12-23T05:26:43.831Z,6.22
2022-12-23T05:29:14.563Z,6.26
2022-12-23T05:31:41.042Z,6.29
2022-12-23T05:34:07.738Z,6.32
2022-12-23T05:36:34.246Z,6.33
2022-12-23T05:39:00.673Z,6.29
2022-12-23T05:42:10.764Z,6.24
2022-12-23T05:44:37.226Z,6.25
2022-12-23T05:47:03.659Z,6.27
2022-12-23T05:49:30.190Z,6.28
2022-12-23T05:51:56.630Z,6.30
2022-12-23T05:54:23.028Z,6.30
2022-12-23T05:56:49.454Z,6.25
2022-12-23T05:59:15.906Z,6.24
2022-12-23T06:01:42.433Z,6.30
2022-12-23T06:04:09.033Z,6.32
2022-12-23T06:06:35.563Z,6.32
2022-12-23T06:09:02.004Z,6.33
2022-12-23T06:11:28.687Z,6.35
2022-12-23T06:13:55.180Z,6.32
2022-12-23T06:16:21.642Z,6.27
2022-12-23T06:18:48.156Z,6.22
2022-12-23T06:21:14.574Z,6.21
2022-12-23T06:23:40.977Z,6.31
2022-12-23T06:26:07.379Z,6.31
2022-12-23T06:28:33.800Z,6.30
2022-12-23T06:31:00.226Z,6.36
2022-12-23T06:33:26.676Z,6.35
2022-12-23T06:35:53.083Z,6.38
2022-12-23T06:38:19.514Z,6.40
2022-12-23T06:40:45.939Z,6.40
2022-12-23T06:43:13.398Z,6.35
2022-12-23T06:45:40.179Z,6.28
2022-12-23T06:48:07.220Z,6.29
2022-12-23T06:50:33.660Z,6.24
2022-12-23T06:53:00.128Z,6.26
2022-12-23T06:55:26.638Z,6.27
2022-12-23T06:57:53.131Z,6.31
2022-12-23T07:00:20.104Z,6.36
2022-12-23T07:02:46.668Z,6.34
2022-12-23T07:05:13.220Z,6.36
2022-12-23T07:07:39.822Z,6.39
2022-12-23T07:10:07.688Z,6.39
2022-12-23T07:12:34.182Z,6.37
2022-12-23T07:15:00.619Z,6.33
2022-12-23T07:17:27.506Z,6.37
2022-12-23T07:19:53.909Z,6.37
2022-12-23T07:22:20.335Z,6.35
2022-12-23T07:24:46.821Z,6.36
2022-12-23T07:27:13.531Z,6.38
2022-12-23T07:29:39.930Z,6.44
2022-12-23T07:32:06.466Z,6.47
2022-12-23T07:34:32.923Z,6.48
2022-12-23T07:36:59.396Z,6.49
2022-12-23T07:39:25.820Z,6.52
2022-12-23T07:42:09.029Z,6.46
2022-12-23T07:44:38.688Z,6.42
2022-12-23T07:47:05.128Z,6.37
2022-12-23T07:49:31.607Z,6.42
2022-12-23T07:51:58.005Z,6.51
2022-12-23T07:54:24.438Z,6.57
2022-12-23T07:56:50.899Z,6.60
2022-12-23T07:59:17.322Z,6.59
2022-12-23T08:01:44.148Z,6.60
2022-12-23T08:04:10.742Z,6.63
2022-12-23T08:06:37.239Z,6.64
2022-12-23T08:09:03.813Z,6.65
2022-12-23T08:11:30.239Z,6.68
2022-12-23T08:13:56.666Z,6.71
2022-12-23T08:16:23.118Z,6.75
2022-12-23T08:18:49.593Z,6.78
2022-12-23T08:21:19.332Z,6.81
2022-12-23T08:23:47.361Z,6.86
2022-12-23T08:26:20.961Z,6.87
2022-12-23T08:28:48.834Z,6.91
2022-12-23T08:31:21.322Z,6.96
2022-12-23T08:33:50.579Z,6.95
2022-12-23T08:36:23.154Z,6.99
2022-12-23T08:38:52.254Z,7.04
2022-12-23T08:41:22.716Z,7.09
2022-12-23T08:43:49.636Z,7.10
2022-12-23T08:46:16.148Z,7.10
2022-12-23T08:48:48.882Z,7.08
2022-12-23T08:51:18.116Z,7.10
2022-12-23T08:53:44.747Z,7.14
2022-12-23T08:56:14.671Z,7.19
2022-12-23T08:58:43.966Z,7.18
2022-12-23T09:01:13.258Z,7.18
2022-12-23T09:03:42.957Z,7.22
2022-12-23T09:06:15.119Z,7.44
2022-12-23T09:08:41.833Z,7.47
2022-12-23T09:11:13.193Z,7.37
2022-12-23T09:13:40.507Z,7.28
2022-12-23T09:16:07.905Z,7.22
2022-12-23T09:18:35.019Z,7.18
2022-12-23T09:21:14.061Z,7.18
2022-12-23T09:23:41.044Z,7.26
2022-12-23T09:26:09.551Z,7.25
2022-12-23T09:28:36.150Z,7.27
2022-12-23T09:31:10.395Z,7.31
2022-12-23T09:33:37.585Z,7.32
2022-12-23T09:36:05.403Z,7.31
2022-12-23T09:38:32.666Z,7.33
2022-12-23T09:41:03.391Z,7.32
2022-12-23T09:43:52.982Z,7.34
2022-12-23T09:46:22.910Z,7.36
2022-12-23T09:49:09.217Z,7.37
2022-12-23T09:51:35.689Z,7.39
2022-12-23T09:54:17.205Z,7.41
2022-12-23T09:57:08.832Z,7.40
2022-12-23T09:59:46.442Z,7.48
2022-12-23T10:02:44.020Z,7.57
2022-12-23T10:05:36.884Z,7.66
2022-12-23T10:08:12.541Z,7.65
2022-12-23T10:10:49.816Z,7.67
2022-12-23T10:13:29.861Z,7.76
2022-12-23T10:16:01.496Z,7.77
2022-12-23T10:18:38.682Z,7.81
2022-12-23T10:21:25.803Z,7.79
2022-12-23T10:23:54.035Z,7.85
2022-12-23T10:26:39.390Z,7.88
2022-12-23T10:29:19.105Z,7.92
2022-12-23T10:32:01.354Z,7.95
2022-12-23T10:34:41.362Z,7.97
2022-12-23T10:37:14.259Z,8.03
2022-12-23T10:40:18.390Z,8.03
2022-12-23T10:43:15.140Z,8.02
2022-12-23T10:46:07.898Z,7.97
2022-12-23T10:48:37.274Z,8.00
2022-12-23T10:51:30.230Z,8.06
2022-12-23T10:54:05.922Z,8.09
2022-12-23T10:56:32.694Z,8.10
2022-12-23T10:59:00.782Z,8.13
2022-12-23T11:01:30.268Z,8.14
2022-12-23T11:04:06.028Z,8.23
2022-12-23T11:06:37.727Z,8.22
2022-12-23T11:09:06.023Z,8.13
2022-12-23T11:11:54.395Z,8.17
2022-12-23T11:14:35.816Z,8.30
2022-12-23T11:17:05.071Z,8.42
2022-12-23T11:19:31.632Z,8.28
2022-12-23T11:22:00.087Z,8.45
2022-12-23T11:24:31.107Z,8.57
2022-12-23T11:27:03.776Z,8.73
2022-12-23T11:29:36.290Z,8.79
2022-12-23T11:32:15.652Z,8.91
2022-12-23T11:34:45.287Z,8.92
2022-12-23T11:37:26.727Z,8.97
2022-12-23T11:39:53.408Z,9.09
2022-12-23T11:42:27.867Z,9.17
2022-12-23T11:44:55.607Z,9.21
2022-12-23T11:47:21.971Z,9.35
2022-12-23T11:49:53.871Z,9.36
2022-12-23T11:52:23.008Z,9.34
2022-12-23T11:55:04.080Z,9.29
2022-12-23T11:57:44.413Z,9.29
2022-12-23T12:00:41.655Z,9.15
2022-12-23T12:03:18.689Z,9.09
2022-12-23T12:06:00.856Z,8.98
2022-12-23T12:08:34.055Z,8.90
2022-12-23T12:11:05.954Z,8.89
2022-12-23T12:13:39.232Z,8.78
2022-12-23T12:16:28.472Z,8.77
2022-12-23T12:19:04.063Z,8.90
2022-12-23T12:21:35.113Z,8.95
2022-12-23T12:24:28.363Z,8.94
2022-12-23T12:27:00.646Z,8.98
2022-12-23T12:29:36.599Z,9.05
2022-12-23T12:32:04.611Z,9.14
2022-12-23T12:34:36.774Z,9.12
2022-12-23T12:37:12.310Z,9.12
2022-12-23T12:39:49.045Z,9.09
2022-12-23T12:42:35.631Z,9.09
2022-12-23T12:45:22.216Z,9.09
2022-12-23T12:48:04.417Z,9.10
2022-12-23T12:50:48.497Z,9.12
2022-12-23T12:53:21.600Z,9.16
2022-12-23T12:55:53.024Z,9.20
2022-12-23T12:58:22.278Z,9.20
2022-12-23T13:01:00.794Z,9.19
2022-12-23T13:04:04.990Z,9.25
2022-12-23T13:06:44.720Z,9.24
2022-12-23T13:09:11.070Z,9.20
2022-12-23T13:11:45.192Z,9.14
2022-12-23T13:14:39.162Z,9.12
2022-12-23T13:17:17.734Z,9.11
2022-12-23T13:19:55.117Z,9.09
2022-12-23T13:22:28.235Z,9.07
2022-12-23T13:25:13.607Z,9.03
2022-12-23T13:28:08.098Z,8.96
2022-12-23T13:30:53.500Z,8.95
2022-12-23T13:33:19.871Z,8.93
2022-12-23T13:36:01.228Z,8.92
2022-12-23T13:38:48.069Z,8.94
2022-12-23T13:41:31.664Z,8.90
2022-12-23T13:44:05.281Z,8.90
2022-12-23T13:46:50.636Z,8.90
2022-12-23T13:49:17.014Z,8.96
2022-12-23T13:52:00.222Z,8.95
2022-12-23T13:54:44.037Z,8.98
2022-12-23T13:57:24.911Z,8.99
2022-12-23T14:00:22.260Z,9.00
2022-12-23T14:02:57.589Z,8.96
2022-12-23T14:05:47.333Z,8.94
2022-12-23T14:08:25.922Z,8.90
2022-12-23T14:11:04.377Z,8.92
2022-12-23T14:13:39.968Z,8.91
2022-12-23T14:16:36.992Z,8.89
2022-12-23T14:19:18.574Z,8.91
2022-12-23T14:22:03.774Z,8.87
2022-12-23T14:24:30.103Z,8.85
2022-12-23T14:27:30.901Z,8.88
2022-12-23T14:30:19.824Z,8.87
2022-12-23T14:33:00.919Z,8.87
2022-12-23T14:35:47.259Z,8.88
2022-12-23T14:38:13.755Z,8.87
2022-12-23T14:40:43.301Z,8.83
2022-12-23T14:43:44.811Z,8.79
2022-12-23T14:46:39.833Z,8.81
2022-12-23T14:49:40.927Z,8.78
2022-12-23T14:52:40.781Z,8.79
2022-12-23T14:55:31.693Z,8.77
2022-12-23T14:58:17.433Z,8.73
2022-12-23T15:00:55.643Z,8.70
2022-12-23T15:03:22.553Z,8.67
2022-12-23T15:05:50.897Z,8.67
2022-12-23T15:08:32.464Z,8.64
2022-12-23T15:10:59.221Z,8.68
2022-12-23T15:13:28.532Z,8.68
2022-12-23T15:16:01.395Z,8.65
2022-12-23T15:18:29.286Z,8.66
2022-12-23T15:21:01.222Z,8.62
2022-12-23T15:23:27.777Z,8.58
2022-12-23T15:25:58.727Z,8.57
2022-12-23T15:28:37.623Z,8.59
2022-12-23T15:31:05.479Z,8.58
2022-12-23T15:36:32.200Z,8.59
2022-12-23T15:39:00.717Z,8.61
2022-12-23T15:41:27.920Z,8.59
2022-12-23T15:43:58.409Z,8.58
2022-12-23T15:46:29.856Z,8.54
2022-12-23T15:48:57.327Z,8.58
2022-12-23T15:54:33.825Z,8.57
2022-12-23T15:57:02.622Z,8.57
2022-12-23T15:59:36.545Z,8.56
2022-12-23T16:02:49.646Z,8.55
2022-12-23T16:05:05.350Z,8.53
2022-12-23T16:07:36.481Z,8.53
2022-12-23T16:10:23.783Z,8.54
2022-12-23T16:12:51.512Z,8.53
2022-12-23T16:15:29.786Z,8.54
2022-12-23T16:18:35.647Z,8.56
2022-12-23T16:21:04.368Z,8.57
2022-12-23T16:23:34.931Z,8.56
2022-12-23T16:26:02.602Z,8.54
2022-12-23T16:28:53.239Z,8.53
2022-12-23T16:31:21.127Z,8.53
2022-12-23T16:33:47.510Z,8.49
2022-12-23T16:36:24.965Z,8.50
2022-12-23T16:39:06.747Z,8.47
2022-12-23T16:41:34.355Z,8.48
2022-12-23T16:44:01.207Z,8.47
2022-12-23T16:46:31.764Z,8.46
2022-12-23T16:49:00.708Z,8.50
2022-12-23T16:51:28.898Z,8.52
2022-12-23T16:53:57.212Z,8.53
2022-12-23T16:56:28.241Z,8.53
2022-12-23T16:58:54.721Z,8.51
2022-12-23T17:01:29.525Z,8.49
2022-12-23T17:03:56.121Z,8.49
2022-12-23T17:06:24.024Z,8.50
2022-12-23T17:08:50.754Z,8.49
2022-12-23T17:11:24.970Z,8.49
2022-12-23T17:13:51.594Z,8.48
2022-12-23T17:16:24.194Z,8.44
2022-12-23T17:18:52.962Z,8.45
2022-12-23T17:21:34.105Z,8.44
2022-12-23T17:24:09.213Z,8.44
2022-12-23T17:26:35.657Z,8.43
2022-12-23T17:29:03.726Z,8.39
2022-12-23T17:31:31.559Z,8.40
2022-12-23T17:33:58.062Z,8.44
2022-12-23T17:36:24.602Z,8.42
2022-12-23T17:38:51.093Z,8.43
2022-12-23T17:41:28.470Z,8.38
2022-12-23T17:43:55.604Z,8.37
2022-12-23T17:46:22.303Z,8.36
2022-12-23T17:48:48.967Z,8.38
2022-12-23T17:51:17.563Z,8.38
2022-12-23T17:53:45.339Z,8.38
2022-12-23T17:56:19.869Z,8.38
2022-12-23T17:58:48.125Z,8.54
2022-12-23T18:01:21.017Z,8.48
2022-12-23T18:03:47.710Z,8.42
2022-12-23T18:06:15.736Z,8.39
2022-12-23T18:08:42.380Z,8.39
2022-12-23T18:11:16.992Z,8.41
2022-12-23T18:13:43.817Z,8.38
2022-12-23T18:16:12.140Z,8.36
2022-12-23T18:18:46.293Z,8.36
2022-12-23T18:21:28.007Z,8.36
2022-12-23T18:23:57.713Z,8.35
2022-12-23T18:26:24.877Z,8.36
2022-12-23T18:28:52.652Z,8.34
2022-12-23T18:31:22.648Z,8.32
2022-12-23T18:33:49.615Z,8.27
2022-12-23T18:36:27.010Z,8.28
2022-12-23T18:38:54.444Z,8.31
2022-12-23T18:41:22.109Z,8.33
2022-12-23T18:43:49.148Z,8.30
2022-12-23T18:46:15.868Z,8.22
2022-12-23T18:48:43.032Z,8.22
2022-12-23T18:51:15.501Z,8.15
2022-12-23T18:53:43.435Z,8.16
2022-12-23T18:56:15.134Z,8.14
2022-12-23T18:58:42.294Z,8.06
2022-12-23T19:01:13.867Z,8.06
2022-12-23T19:03:41.033Z,8.09
2022-12-23T19:06:09.317Z,8.08
2022-12-23T19:08:37.332Z,8.06
2022-12-23T19:11:11.507Z,8.09
2022-12-23T19:13:37.959Z,8.11
2022-12-23T19:16:04.750Z,8.09
2022-12-23T19:18:31.182Z,8.10
2022-12-23T19:20:57.568Z,8.15
2022-12-23T19:23:25.036Z,8.18
2022-12-23T19:25:55.189Z,8.20
2022-12-23T19:28:22.588Z,8.18
2022-12-23T19:30:49.478Z,8.14
2022-12-23T19:33:16.049Z,8.16
2022-12-23T19:35:42.783Z,8.13
2022-12-23T19:38:09.232Z,8.08
2022-12-23T19:40:35.732Z,8.04
2022-12-23T19:43:03.001Z,7.96
2022-12-23T19:45:29.448Z,7.94
2022-12-23T19:47:55.939Z,7.96
2022-12-23T19:50:22.821Z,8.00
2022-12-23T19:52:50.652Z,8.02
2022-12-23T19:55:17.176Z,8.02
2022-12-23T19:57:43.619Z,8.00
2022-12-23T20:00:10.779Z,7.96
2022-12-23T20:02:37.262Z,7.92
2022-12-23T20:05:05.206Z,7.91
2022-12-23T20:07:31.648Z,7.91
2022-12-23T20:09:58.142Z,7.86
2022-12-23T20:12:26.338Z,7.85
2022-12-23T20:14:52.766Z,7.86
2022-12-23T20:17:19.199Z,7.86
2022-12-23T20:19:46.275Z,7.84
2022-12-23T20:22:13.184Z,7.87
2022-12-23T20:24:39.671Z,7.92
2022-12-23T20:27:11.011Z,7.92
2022-12-23T20:29:38.757Z,7.89
2022-12-23T20:32:05.449Z,7.85
2022-12-23T20:34:38.331Z,7.84
2022-12-23T20:37:05.436Z,7.82
2022-12-23T20:39:31.907Z,7.78
2022-12-23T20:41:58.310Z,7.81
2022-12-23T20:44:34.504Z,7.81
2022-12-23T20:47:01.963Z,7.80
2022-12-23T20:49:28.483Z,7.82
2022-12-23T20:51:55.066Z,7.89
2022-12-23T20:54:26.295Z,7.93
2022-12-23T20:56:56.362Z,7.92
2022-12-23T20:59:22.834Z,7.94
2022-12-23T21:01:49.319Z,7.93
2022-12-23T21:04:16.674Z,7.93
2022-12-23T21:06:43.620Z,7.95
2022-12-23T21:09:12.273Z,7.95
2022-12-23T21:11:40.916Z,7.99
2022-12-23T21:14:07.796Z,8.01
2022-12-23T21:16:36.532Z,8.00
2022-12-23T21:19:04.237Z,7.98
2022-12-23T21:21:31.792Z,7.95
2022-12-23T21:24:01.115Z,7.97
2022-12-23T21:26:29.045Z,7.97
2022-12-23T21:28:59.501Z,8.00
2022-12-23T21:31:27.582Z,8.01
2022-12-23T21:33:54.514Z,7.94
2022-12-23T21:36:24.689Z,7.94
2022-12-23T21:38:52.134Z,7.93
2022-12-23T21:41:29.437Z,7.94
2022-12-23T21:43:56.913Z,7.98
2022-12-23T21:46:24.211Z,7.99
2022-12-23T21:48:51.106Z,7.99
2022-12-23T21:51:23.214Z,8.02
2022-12-23T21:53:52.354Z,7.97
2022-12-23T21:56:24.304Z,7.95
2022-12-23T21:58:54.417Z,7.97
2022-12-23T22:01:21.044Z,7.96
2022-12-23T22:03:49.045Z,8.00
2022-12-23T22:06:18.553Z,7.97
2022-12-23T22:08:45.158Z,7.96
2022-12-23T22:11:27.348Z,7.95
2022-12-23T22:13:55.929Z,7.99
2022-12-23T22:16:24.754Z,7.99
2022-12-23T22:18:52.162Z,8.00
2022-12-23T22:21:21.102Z,7.98
2022-12-23T22:23:48.487Z,8.01
2022-12-23T22:26:24.142Z,8.01
2022-12-23T22:28:52.902Z,7.99
2022-12-23T22:31:40.375Z,7.97
2022-12-23T22:34:08.092Z,7.96
2022-12-23T22:36:35.223Z,7.93
2022-12-23T22:39:02.378Z,7.92
2022-12-23T22:41:30.215Z,7.88
2022-12-23T22:43:57.996Z,7.82
2022-12-23T22:46:25.578Z,7.79
2022-12-23T22:48:52.766Z,7.85
2022-12-23T22:51:23.307Z,7.89
2022-12-23T22:53:50.599Z,7.91
2022-12-23T22:56:19.796Z,7.90
2022-12-23T22:58:46.645Z,7.91
2022-12-23T23:01:21.668Z,7.91
2022-12-23T23:03:51.057Z,7.91
2022-12-23T23:06:18.300Z,7.93
2022-12-23T23:08:47.716Z,7.94
2022-12-23T23:11:15.298Z,7.94
2022-12-23T23:13:41.825Z,7.94
2022-12-23T23:16:08.407Z,7.93
2022-12-23T23:18:35.170Z,7.89
2022-12-23T23:21:01.747Z,7.89
2022-12-23T23:23:28.280Z,7.82
2022-12-23T23:25:54.693Z,7.83
2022-12-23T23:28:21.167Z,7.87
2022-12-23T23:30:47.847Z,7.85
2022-12-23T23:33:14.344Z,7.81
2022-12-23T23:35:40.884Z,7.81
2022-12-23T23:38:08.333Z,7.83
2022-12-23T23:40:35.150Z,7.84
2022-12-23T23:43:01.663Z,7.83
2022-12-23T23:45:28.140Z,7.82
2022-12-23T23:47:55.331Z,7.80
2022-12-23T23:50:22.354Z,7.82
2022-12-23T23:52:48.778Z,7.85
2022-12-23T23:55:15.357Z,7.90
2022-12-23T23:57:41.801Z,7.89
